Time;durP1;ratioP1;P1;durP2;ratioP2;P2;SDS_P1;SDS_P2;PMS_P1;PMS_P2;Temp;Humidity;BMP_temperature;BMP_pressure;BME280_temperature;BME280_humidity;BME280_pressure;Samples;Min_cycle;Max_cycle;Signal;HPM_P1;HPM_P2
2021/07/17 00:00:37;;;;;;;24.48;15.18;;;;;;;22.98;69.13;99330.56;5113357;28;20096;-66
2021/07/17 00:03:04;;;;;;;27.20;16.02;;;;;;;23.01;68.92;99329.47;5060213;28;20466;-65
2021/07/17 00:05:31;;;;;;;26.45;15.75;;;;;;;23.00;69.07;99325.94;5078553;28;20042;-64
2021/07/17 00:08:00;;;;;;;23.98;16.35;;;;;;;22.95;68.40;99309.47;5111240;28;20118;-65
2021/07/17 00:10:49;;;;;;;32.05;16.20;;;;;;;23.03;68.29;99324.84;5113449;28;20063;-66
2021/07/17 00:13:19;;;;;;;24.55;15.60;;;;;;;22.88;68.19;99297.59;5112047;28;20129;-65
2021/07/17 00:15:45;;;;;;;27.55;15.40;;;;;;;23.05;68.13;99325.59;5113544;28;20058;-65
2021/07/17 00:18:14;;;;;;;26.05;15.15;;;;;;;23.01;68.31;99316.97;5094810;28;20070;-65
2021/07/17 00:20:41;;;;;;;21.73;14.57;;;;;;;22.82;68.89;99309.63;5095184;28;20113;-64
2021/07/17 00:23:07;;;;;;;24.85;15.27;;;;;;;22.75;68.99;99320.88;5095393;28;20435;-65
2021/07/17 00:25:33;;;;;;;29.23;15.50;;;;;;;22.67;69.41;99315.31;5094702;28;20054;-65
2021/07/17 00:27:59;;;;;;;23.20;14.80;;;;;;;22.58;69.90;99316.06;5113584;28;20408;-65
2021/07/17 00:30:25;;;;;;;29.45;16.15;;;;;;;22.55;70.41;99326.97;5094823;28;20039;-64
2021/07/17 00:33:01;;;;;;;23.48;15.32;;;;;;;22.50;70.77;99320.19;5112574;28;20064;-66
2021/07/17 00:35:27;;;;;;;26.13;16.58;;;;;;;22.40;71.04;99311.25;5093367;28;20036;-66
2021/07/17 00:37:53;;;;;;;26.33;16.75;;;;;;;22.42;71.01;99321.78;5112856;28;20051;-66
2021/07/17 00:40:21;;;;;;;26.88;15.13;;;;;;;22.32;71.38;99318.16;5094301;28;20043;-64
2021/07/17 00:42:48;;;;;;;27.40;16.45;;;;;;;22.36;72.96;99328.44;5111828;28;20035;-65
2021/07/17 00:45:15;;;;;;;26.50;17.95;;;;;;;22.28;72.55;99338.84;5093977;28;20055;-65
2021/07/17 00:47:41;;;;;;;27.30;15.77;;;;;;;22.26;73.35;99332.78;5094159;28;20403;-66
2021/07/17 00:50:10;;;;;;;34.08;20.10;;;;;;;22.20;74.57;99327.94;5093261;28;20040;-64
2021/07/17 00:52:36;;;;;;;30.25;19.52;;;;;;;22.08;74.79;99315.59;5059759;28;20040;-65
2021/07/17 00:55:04;;;;;;;34.80;21.13;;;;;;;22.12;75.39;99325.03;5093803;28;20420;-65
2021/07/17 00:57:34;;;;;;;31.73;19.33;;;;;;;22.00;74.98;99316.16;5093772;28;20035;-65
2021/07/17 01:00:08;;;;;;;28.20;17.45;;;;;;;22.05;75.10;99329.13;5112732;28;20652;-65
2021/07/17 01:02:45;;;;;;;23.20;17.30;;;;;;;21.89;75.31;99309.00;5093842;28;20044;-65
2021/07/17 01:05:11;;;;;;;37.33;18.00;;;;;;;21.93;75.29;99311.41;5094515;28;20043;-64
2021/07/17 01:07:48;;;;;;;30.88;18.08;;;;;;;22.10;75.54;99329.63;5094675;28;20046;-65
2021/07/17 01:10:17;;;;;;;28.90;17.85;;;;;;;22.14;75.22;99325.75;5094224;28;20450;-64
2021/07/17 01:12:43;;;;;;;32.60;17.65;;;;;;;22.09;74.91;99309.28;5095476;28;20043;-65
2021/07/17 01:15:09;;;;;;;32.65;18.00;;;;;;;22.15;74.67;99317.66;5093618;28;20480;-65
2021/07/17 01:17:35;;;;;;;27.60;16.00;;;;;;;22.15;73.33;99320.31;5112898;28;20043;-64
2021/07/17 01:20:06;;;;;;;35.22;18.30;;;;;;;22.10;74.61;99309.16;5093986;28;20393;-65
2021/07/17 01:22:32;;;;;;;28.88;17.30;;;;;;;22.09;74.27;99319.94;5093480;28;20047;-65
2021/07/17 01:25:13;;;;;;;28.23;16.75;;;;;;;22.07;73.94;99329.88;5112304;28;20054;-64
2021/07/17 01:27:39;;;;;;;24.67;17.05;;;;;;;22.05;73.62;99323.81;5112246;28;20093;-65
2021/07/17 01:30:14;;;;;;;30.88;17.23;;;;;;;21.97;73.53;99315.53;5095110;28;20043;-66
2021/07/17 01:32:40;;;;;;;30.63;18.90;;;;;;;22.03;73.75;99328.41;5111670;28;20083;-64
2021/07/17 01:35:07;;;;;;;24.05;16.95;;;;;;;22.05;73.41;99329.13;5092638;28;20070;-66
2021/07/17 01:37:32;;;;;;;23.60;17.15;;;;;;;22.00;73.98;99328.63;5111277;28;20484;-64
2021/07/17 01:40:00;;;;;;;19.00;15.23;;;;;;;22.05;73.49;99337.13;5092824;28;20134;-64
2021/07/17 01:42:27;;;;;;;23.40;16.00;;;;;;;21.99;74.00;99318.94;5076979;28;20043;-64
2021/07/17 01:44:53;;;;;;;28.27;16.20;;;;;;;22.10;73.70;99327.81;5093369;28;20458;-65
2021/07/17 01:47:19;;;;;;;20.73;16.08;;;;;;;22.07;74.30;99337.88;5092222;28;20035;-65
2021/07/17 01:49:45;;;;;;;28.77;17.67;;;;;;;22.07;74.11;99332.53;5092919;28;20492;-65
2021/07/17 01:52:10;;;;;;;22.52;16.13;;;;;;;22.11;73.67;99334.00;5091811;28;20040;-65
2021/07/17 01:54:37;;;;;;;24.83;15.57;;;;;;;22.08;72.77;99313.78;5092599;28;20035;-64
2021/07/17 01:57:05;;;;;;;25.05;15.40;;;;;;;22.19;72.58;99312.91;5110530;28;20050;-64
2021/07/17 01:59:36;;;;;;;27.63;16.65;;;;;;;22.25;73.19;99325.75;5093223;28;20073;-64
2021/07/17 02:02:02;;;;;;;28.02;17.00;;;;;;;22.13;73.65;99311.59;5110924;28;20070;-65
2021/07/17 02:04:28;;;;;;;26.80;17.70;;;;;;;22.29;74.17;99326.38;5111015;28;20031;-64
2021/07/17 02:06:53;;;;;;;26.95;18.70;;;;;;;22.27;74.15;99313.16;5058684;28;20042;-64
2021/07/17 02:09:19;;;;;;;26.92;16.30;;;;;;;22.40;72.71;99329.91;5110752;28;20062;-64
2021/07/17 02:11:45;;;;;;;23.02;16.23;;;;;;;22.43;72.72;99324.31;5112368;28;20047;-65
2021/07/17 02:14:10;;;;;;;25.02;17.88;;;;;;;22.39;72.86;99314.88;5111433;28;20096;-65
2021/07/17 02:16:36;;;;;;;21.50;16.00;;;;;;;22.48;72.08;99318.63;5093382;28;20445;-64
2021/07/17 02:19:11;;;;;;;26.33;17.60;;;;;;;22.61;72.55;99327.34;5111527;28;20043;-66
2021/07/17 02:21:36;;;;;;;29.30;17.70;;;;;;;22.69;72.55;99329.38;5092985;28;20058;-65
2021/07/17 02:24:02;;;;;;;32.78;18.15;;;;;;;22.72;72.42;99321.97;5093473;28;20484;-65
2021/07/17 02:26:28;;;;;;;35.80;18.50;;;;;;;22.96;72.45;99326.31;5111730;28;20502;-63
2021/07/17 02:28:54;;;;;;;26.08;16.52;;;;;;;23.69;70.10;99326.41;5093264;28;20036;-64
2021/07/17 02:31:19;;;;;;;35.10;16.23;;;;;;;24.41;66.91;99333.59;5095392;28;20492;-64
2021/07/17 02:33:45;;;;;;;27.02;16.38;;;;;;;25.00;65.37;99328.31;5097678;28;20446;-65
2021/07/17 02:36:11;;;;;;;20.67;16.23;;;;;;;25.56;63.23;99316.09;5115947;28;20093;-65
2021/07/17 02:38:36;;;;;;;30.23;13.77;;;;;;;26.14;60.85;99322.22;5115776;28;20130;-65
2021/07/17 02:41:02;;;;;;;20.98;13.70;;;;;;;26.57;59.39;99312.75;5096491;28;20035;-64
2021/07/17 02:43:28;;;;;;;18.00;13.88;;;;;;;27.02;57.97;99311.97;5115311;28;20035;-63
2021/07/17 02:45:54;;;;;;;17.10;13.57;;;;;;;27.51;56.79;99319.50;5115018;28;20058;-65
2021/07/17 02:48:19;;;;;;;17.85;13.35;;;;;;;27.83;55.51;99307.31;5113406;28;20042;-64
2021/07/17 02:50:45;;;;;;;24.80;13.32;;;;;;;28.32;54.84;99321.09;5095916;28;20089;-64
2021/07/17 02:53:11;;;;;;;26.95;15.45;;;;;;;28.67;53.73;99318.22;5112941;28;20044;-65
2021/07/17 02:55:36;;;;;;;22.17;14.50;;;;;;;29.00;52.51;99313.00;5114983;28;20043;-65
2021/07/17 02:58:03;;;;;;;27.02;14.05;;;;;;;29.32;51.46;99307.63;5096237;28;20051;-65
2021/07/17 03:00:33;;;;;;;27.48;14.50;;;;;;;29.31;50.84;99316.75;5096950;28;20096;-64
2021/07/17 03:02:59;;;;;;;20.40;13.45;;;;;;;29.76;50.73;99320.84;5114466;28;20047;-65
2021/07/17 03:05:25;;;;;;;20.50;13.40;;;;;;;30.21;50.13;99324.81;5114613;28;20122;-65
2021/07/17 03:07:50;;;;;;;31.30;14.55;;;;;;;30.51;48.86;99325.94;5113215;28;20135;-64
2021/07/17 03:10:16;;;;;;;21.35;14.00;;;;;;;30.77;48.25;99314.88;5114473;28;20047;-65
2021/07/17 03:12:42;;;;;;;30.10;14.68;;;;;;;30.96;45.96;99336.88;5114318;28;20040;-63
2021/07/17 03:15:08;;;;;;;31.17;14.98;;;;;;;31.20;45.00;99325.09;5114176;28;20547;-68
2021/07/17 03:17:34;;;;;;;27.50;14.25;;;;;;;31.19;45.41;99319.88;5095584;28;20074;-66
2021/07/17 03:20:00;;;;;;;27.98;14.40;;;;;;;31.40;44.85;99321.94;5095648;28;20516;-66
2021/07/17 03:22:26;;;;;;;19.75;14.55;;;;;;;31.76;44.28;99343.81;5078386;28;20080;-65
2021/07/17 03:24:51;;;;;;;20.58;13.57;;;;;;;32.23;42.69;99330.00;5113710;28;20100;-65
2021/07/17 03:27:17;;;;;;;24.00;14.55;;;;;;;32.63;42.32;99317.00;5079259;28;20039;-64
2021/07/17 03:29:43;;;;;;;25.90;13.05;;;;;;;33.16;41.44;99332.06;5114074;28;20110;-65
2021/07/17 03:32:10;;;;;;;21.33;12.70;;;;;;;33.42;41.86;99320.69;5113736;28;20468;-64
2021/07/17 03:34:36;;;;;;;23.40;13.77;;;;;;;33.67;41.78;99326.56;5113931;28;20048;-65
2021/07/17 03:37:02;;;;;;;23.88;13.23;;;;;;;34.03;40.77;99334.59;5096278;28;20561;-65
2021/07/17 03:39:28;;;;;;;26.63;13.18;;;;;;;34.04;38.64;99325.41;5113712;28;20040;-66
2021/07/17 03:41:54;;;;;;;33.03;14.50;;;;;;;34.01;38.53;99329.38;5079553;28;20032;-65
2021/07/17 03:44:24;;;;;;;44.35;14.40;;;;;;;33.82;39.47;99334.66;5113416;28;20050;-64
2021/07/17 03:46:50;;;;;;;60.53;15.20;;;;;;;34.30;39.07;99333.75;5113297;28;20054;-65
2021/07/17 03:49:16;;;;;;;36.15;14.57;;;;;;;34.23;38.81;99341.03;5112651;28;20043;-65
2021/07/17 03:51:42;;;;;;;41.45;14.15;;;;;;;34.64;38.35;99334.81;5112926;28;20151;-65
2021/07/17 03:54:10;;;;;;;53.67;15.63;;;;;;;34.94;38.03;99340.84;5113267;28;20039;-64
2021/07/17 03:56:35;;;;;;;19.20;13.43;;;;;;;34.64;37.83;99335.63;5112542;28;20043;-63
2021/07/17 03:59:01;;;;;;;24.77;13.63;;;;;;;35.13;36.82;99337.34;5113173;28;20118;-65
2021/07/17 04:01:27;;;;;;;28.73;13.85;;;;;;;35.21;37.00;99341.75;5113874;28;20054;-65
2021/07/17 04:03:52;;;;;;;20.33;13.20;;;;;;;35.60;35.86;99341.81;5112725;28;20047;-65
2021/07/17 04:06:18;;;;;;;25.55;12.50;;;;;;;35.94;35.38;99331.84;5114158;28;20039;-65
2021/07/17 04:08:44;;;;;;;17.27;12.15;;;;;;;36.35;34.44;99320.69;5094773;28;20126;-64
2021/07/17 04:11:09;;;;;;;29.02;13.57;;;;;;;36.32;35.42;99326.56;5112763;28;20051;-66
2021/07/17 04:13:35;;;;;;;28.10;13.30;;;;;;;36.58;34.82;99331.94;5112279;28;20043;-66
2021/07/17 04:16:01;;;;;;;16.63;10.38;;;;;;;36.57;33.07;99334.88;5112672;28;20048;-65
2021/07/17 04:18:27;;;;;;;17.73;11.88;;;;;;;36.96;33.74;99338.53;5112953;28;20039;-63
2021/07/17 04:20:53;;;;;;;18.10;11.50;;;;;;;37.36;32.44;99333.72;5093680;28;20104;-66
2021/07/17 04:23:19;;;;;;;20.10;10.50;;;;;;;36.59;31.68;99332.78;5112320;28;20493;-64
2021/07/17 04:25:44;;;;;;;16.02;10.18;;;;;;;36.92;31.11;99333.50;5111161;28;20040;-67
2021/07/17 04:28:10;;;;;;;14.13;9.27;;;;;;;37.14;30.22;99331.28;5112157;28;20042;-66
2021/07/17 04:30:36;;;;;;;16.65;9.55;;;;;;;37.83;29.96;99335.91;5110591;28;20051;-67
2021/07/17 04:33:02;;;;;;;16.58;9.85;;;;;;;38.05;30.55;99339.09;5111852;28;20062;-72
2021/07/17 04:35:27;;;;;;;22.73;10.15;;;;;;;38.14;29.94;99326.81;5111649;28;20043;-67
2021/07/17 04:37:53;;;;;;;12.38;8.82;;;;;;;38.15;28.65;99333.13;5076645;28;20081;-67
2021/07/17 04:40:19;;;;;;;17.38;9.82;;;;;;;38.12;29.31;99319.91;5060986;28;20046;-67
2021/07/17 04:42:45;;;;;;;23.40;9.73;;;;;;;37.86;29.97;99337.34;5093822;28;20047;-69
2021/07/17 04:45:11;;;;;;;17.65;9.85;;;;;;;38.01;29.55;99326.94;5111381;28;20039;-67
2021/07/17 04:47:37;;;;;;;15.27;9.25;;;;;;;37.64;29.03;99336.03;5112280;28;20047;-65
2021/07/17 04:50:04;;;;;;;14.82;9.68;;;;;;;38.00;28.85;99336.19;5111084;28;20110;-74
2021/07/17 04:52:30;;;;;;;11.80;8.32;;;;;;;38.74;27.75;99324.31;5090631;28;20055;-66
2021/07/17 04:54:56;;;;;;;11.80;8.50;;;;;;;38.54;28.16;99328.28;5109059;28;20740;-67
2021/07/17 04:57:22;;;;;;;13.95;8.45;;;;;;;39.28;27.05;99338.09;5090093;28;20353;-72
2021/07/17 04:59:47;;;;;;;13.10;8.70;;;;;;;39.21;26.34;99331.91;5091469;28;20050;-69
2021/07/17 05:02:13;;;;;;;12.57;8.63;;;;;;;39.24;26.88;99337.75;5074199;28;20035;-68
2021/07/17 05:04:39;;;;;;;13.18;8.70;;;;;;;39.64;25.94;99345.41;5110271;28;20043;-69
2021/07/17 05:07:05;;;;;;;12.63;8.27;;;;;;;40.10;25.13;99341.03;5092262;28;20653;-70
2021/07/17 05:09:30;;;;;;;13.57;8.50;;;;;;;39.58;26.50;99338.97;5110468;28;20537;-68
2021/07/17 05:11:56;;;;;;;16.10;9.07;;;;;;;39.47;26.26;99341.63;5110173;28;20400;-69
2021/07/17 05:14:22;;;;;;;13.52;8.60;;;;;;;39.12;26.90;99331.41;5110855;28;20047;-70
2021/07/17 05:16:47;;;;;;;19.48;9.05;;;;;;;39.25;26.74;99336.66;5092734;28;20043;-69
2021/07/17 05:19:16;;;;;;;14.70;8.30;;;;;;;39.93;25.80;99346.41;5089952;28;20123;-70
2021/07/17 05:21:42;;;;;;;13.07;8.18;;;;;;;40.30;25.15;99347.03;5111009;28;20055;-67
2021/07/17 05:24:08;;;;;;;15.35;8.98;;;;;;;40.71;25.05;99335.03;5110952;28;20050;-67
2021/07/17 05:26:33;;;;;;;15.27;8.80;;;;;;;41.10;23.91;99327.91;5111292;28;20043;-67
2021/07/17 05:28:59;;;;;;;13.15;8.75;;;;;;;40.44;25.09;99359.44;5112385;28;20043;-67
2021/07/17 05:31:25;;;;;;;14.80;9.02;;;;;;;40.09;25.49;99340.22;5111470;28;20035;-69
2021/07/17 05:33:50;;;;;;;11.75;9.10;;;;;;;40.25;25.19;99350.47;5092205;28;20059;-77
2021/07/17 05:36:16;;;;;;;13.13;8.75;;;;;;;40.77;23.91;99335.97;5092130;28;20054;-73
2021/07/17 05:38:42;;;;;;;12.60;8.18;;;;;;;41.36;23.52;99345.72;5111106;28;20063;-70
2021/07/17 05:41:07;;;;;;;10.68;7.75;;;;;;;41.48;22.86;99335.50;5109482;28;20042;-67
2021/07/17 05:43:34;;;;;;;16.33;8.00;;;;;;;41.90;22.27;99346.13;5110982;28;20046;-68
2021/07/17 05:46:01;;;;;;;9.95;7.70;;;;;;;42.19;21.34;99352.38;5111125;28;20066;-68
2021/07/17 05:48:27;;;;;;;15.02;7.00;;;;;;;42.47;20.86;99345.94;5092692;28;20044;-66
2021/07/17 05:50:53;;;;;;;10.73;6.68;;;;;;;42.34;20.58;99327.00;5075530;28;20055;-68
2021/07/17 05:53:18;;;;;;;12.30;7.13;;;;;;;42.36;20.31;99333.91;5110632;28;20115;-68
2021/07/17 05:55:44;;;;;;;11.18;6.90;;;;;;;42.36;20.73;99344.91;5110525;28;20039;-70
2021/07/17 05:58:10;;;;;;;10.55;7.03;;;;;;;42.46;20.76;99341.53;5110560;28;20054;-68
2021/07/17 06:00:35;;;;;;;9.02;6.65;;;;;;;42.59;20.23;99343.91;5089433;28;20047;-67
2021/07/17 06:03:01;;;;;;;8.70;7.03;;;;;;;41.31;22.30;99348.38;5085696;28;20083;-68
2021/07/17 06:05:27;;;;;;;11.63;7.30;;;;;;;42.00;21.21;99334.47;5099815;28;20046;-67
2021/07/17 06:07:53;;;;;;;11.35;7.38;;;;;;;42.24;20.99;99340.59;5105506;28;20097;-69
2021/07/17 06:10:18;;;;;;;7.88;7.05;;;;;;;41.51;21.73;99342.41;5105379;28;20385;-69
2021/07/17 06:12:44;;;;;;;14.02;7.97;;;;;;;40.94;23.17;99336.94;5053459;28;20036;-70
2021/07/17 06:15:10;;;;;;;19.70;8.07;;;;;;;41.56;22.15;99339.75;5104762;28;20031;-70
2021/07/17 06:17:36;;;;;;;10.57;7.95;;;;;;;41.83;22.03;99323.47;5088142;28;20130;-68
2021/07/17 06:20:03;;;;;;;11.90;8.07;;;;;;;40.88;22.66;99335.16;5087630;28;20453;-70
2021/07/17 06:22:29;;;;;;;11.20;7.95;;;;;;;41.32;22.52;99339.06;5105913;28;20039;-70
2021/07/17 06:24:55;;;;;;;12.57;7.93;;;;;;;42.01;21.59;99330.63;5109150;28;20050;-76
2021/07/17 06:27:20;;;;;;;10.25;7.47;;;;;;;42.03;21.27;99328.44;5110547;28;20059;-69
2021/07/17 06:29:46;;;;;;;16.95;7.88;;;;;;;41.85;21.27;99307.56;5110683;28;20035;-71
2021/07/17 06:32:12;;;;;;;12.38;7.97;;;;;;;42.76;20.80;99336.41;5091635;28;20063;-67
2021/07/17 06:34:37;;;;;;;8.93;7.03;;;;;;;42.15;21.15;99315.47;5109612;28;20043;-67
2021/07/17 06:37:03;;;;;;;12.88;6.78;;;;;;;42.49;20.03;99328.09;5091324;28;20480;-67
2021/07/17 06:39:29;;;;;;;12.65;6.70;;;;;;;41.88;20.54;99329.06;5109805;28;20040;-75
2021/07/17 06:41:54;;;;;;;9.68;6.90;;;;;;;42.05;20.74;99305.16;5109975;28;20123;-69
2021/07/17 06:44:20;;;;;;;8.80;6.55;;;;;;;42.77;19.44;99323.47;5109510;28;20101;-71
2021/07/17 06:46:46;;;;;;;10.93;6.68;;;;;;;42.23;20.03;99323.28;5107676;28;20428;-72
2021/07/17 06:49:11;;;;;;;8.63;6.80;;;;;;;42.60;19.34;99317.22;5106892;28;20460;-72
2021/07/17 06:51:37;;;;;;;12.50;6.53;;;;;;;43.22;18.58;99325.13;5106979;28;20039;-72
2021/07/17 06:54:03;;;;;;;10.32;7.10;;;;;;;42.74;19.68;99330.31;5089562;28;20046;-71
2021/07/17 06:56:29;;;;;;;12.98;7.13;;;;;;;43.14;19.40;99326.41;5108070;28;20051;-72
2021/07/17 06:58:54;;;;;;;14.38;6.78;;;;;;;41.92;20.91;99321.97;5091006;28;20039;-72
2021/07/17 07:01:20;;;;;;;11.32;7.50;;;;;;;42.46;20.10;99312.09;5110045;28;20563;-71
2021/07/17 07:03:46;;;;;;;10.30;7.07;;;;;;;42.55;20.29;99314.41;5109572;28;20093;-72
2021/07/17 07:06:12;;;;;;;9.02;7.40;;;;;;;43.14;20.24;99329.16;5110027;28;20112;-72
2021/07/17 07:08:37;;;;;;;10.35;6.95;;;;;;;43.65;19.38;99337.94;5109596;28;20059;-73
2021/07/17 07:11:03;;;;;;;9.85;7.20;;;;;;;43.54;19.54;99320.47;5110104;28;20047;-73
2021/07/17 07:13:29;;;;;;;9.48;7.00;;;;;;;42.85;19.76;99317.50;5110191;28;20078;-71
2021/07/17 07:15:54;;;;;;;17.17;7.40;;;;;;;43.21;19.46;99328.97;5091630;28;20084;-72
2021/07/17 07:18:20;;;;;;;12.85;7.13;;;;;;;44.01;18.75;99322.53;5113470;28;20042;-72
2021/07/17 07:20:46;;;;;;;9.10;7.00;;;;;;;43.95;18.38;99329.13;5113773;28;20508;-73
2021/07/17 07:23:13;;;;;;;16.70;7.85;;;;;;;44.30;18.03;99318.31;5113762;28;20047;-72
2021/07/17 07:25:39;;;;;;;13.52;6.50;;;;;;;44.36;17.84;99317.25;5114107;28;20073;-70
2021/07/17 07:28:05;;;;;;;13.52;7.03;;;;;;;43.66;18.57;99314.81;5113486;28;20035;-72
2021/07/17 07:30:30;;;;;;;13.23;7.35;;;;;;;43.37;18.36;99323.38;5113369;28;20039;-72
2021/07/17 07:32:56;;;;;;;23.45;7.40;;;;;;;43.41;18.64;99321.75;5113154;28;20063;-71
2021/07/17 07:35:23;;;;;;;14.82;7.47;;;;;;;43.19;18.38;99309.94;5113608;28;20048;-72
2021/07/17 07:37:52;;;;;;;10.85;7.63;;;;;;;42.95;19.05;99303.91;5061949;28;20392;-72
2021/07/17 07:40:19;;;;;;;15.25;8.02;;;;;;;43.13;19.33;99305.47;5079008;28;20043;-72
2021/07/17 07:42:45;;;;;;;10.73;7.57;;;;;;;43.25;18.88;99308.91;5113760;28;20043;-72
2021/07/17 07:45:12;;;;;;;13.00;7.78;;;;;;;43.84;18.33;99310.81;5113703;28;20375;-72
2021/07/17 07:47:38;;;;;;;18.50;7.45;;;;;;;43.78;18.39;99293.41;5113410;28;20043;-71
2021/07/17 07:50:05;;;;;;;11.98;8.50;;;;;;;42.20;19.81;99301.78;5113170;28;20282;-74
2021/07/17 07:52:31;;;;;;;8.00;7.20;;;;;;;42.54;19.50;99296.22;5061488;28;20039;-72
2021/07/17 07:54:57;;;;;;;19.35;7.88;;;;;;;42.74;19.05;99299.22;5113368;28;20485;-72
2021/07/17 07:57:23;;;;;;;9.38;7.28;;;;;;;42.11;19.18;99290.41;5113297;28;20043;-73
2021/07/17 07:59:49;;;;;;;14.55;7.22;;;;;;;41.39;20.00;99286.72;5095246;28;20484;-72
2021/07/17 08:02:14;;;;;;;13.75;7.63;;;;;;;41.96;19.13;99297.56;5108843;28;20173;-71
2021/07/17 08:04:40;;;;;;;13.48;6.82;;;;;;;42.72;18.26;99309.66;5112993;28;20506;-70
2021/07/17 08:07:06;;;;;;;18.80;7.25;;;;;;;43.21;17.67;99307.75;5110567;28;20556;-70
2021/07/17 08:09:32;;;;;;;13.05;6.80;;;;;;;42.43;18.38;99301.56;5090367;28;20051;-69
2021/07/17 08:11:58;;;;;;;13.43;6.82;;;;;;;43.00;17.88;99303.94;5057424;28;20519;-70
2021/07/17 08:14:24;;;;;;;17.50;7.25;;;;;;;43.32;17.52;99306.78;5073676;28;20059;-70
2021/07/17 08:16:50;;;;;;;18.52;7.00;;;;;;;42.93;17.84;99292.31;5074166;28;20050;-74
2021/07/17 08:19:16;;;;;;;12.30;6.30;;;;;;;43.08;16.98;99297.97;5106953;28;20043;-68
2021/07/17 08:21:43;;;;;;;15.35;6.50;;;;;;;42.97;17.55;99290.69;5106671;28;20130;-71
2021/07/17 08:24:08;;;;;;;10.10;5.88;;;;;;;42.93;17.25;99288.72;5106630;28;20043;-74
2021/07/17 08:26:35;;;;;;;8.00;6.05;;;;;;;42.79;17.36;99285.53;5088810;28;20506;-72
2021/07/17 08:29:01;;;;;;;11.27;6.28;;;;;;;42.82;17.56;99287.75;5069882;28;20504;-72
2021/07/17 08:31:26;;;;;;;8.90;6.30;;;;;;;43.04;17.70;99291.31;5106559;28;20039;-72
2021/07/17 08:33:52;;;;;;;10.88;6.47;;;;;;;43.65;16.55;99278.16;5105721;28;20059;-72
2021/07/17 08:36:18;;;;;;;9.55;5.78;;;;;;;43.70;16.49;99289.22;5070581;28;20085;-70
2021/07/17 08:38:44;;;;;;;9.23;5.82;;;;;;;43.49;16.92;99292.88;5088899;28;20036;-73
2021/07/17 08:41:11;;;;;;;13.63;6.30;;;;;;;43.50;15.82;99288.22;5086767;28;20047;-71
2021/07/17 08:43:37;;;;;;;13.23;5.13;;;;;;;42.97;15.76;99284.38;5105173;28;20043;-73
2021/07/17 08:46:04;;;;;;;11.57;4.90;;;;;;;40.09;17.62;99270.88;5069792;28;20047;-71
2021/07/17 08:48:33;;;;;;;6.07;4.80;;;;;;;40.79;17.59;99273.50;5069737;28;20071;-71
2021/07/17 08:51:00;;;;;;;5.05;4.60;;;;;;;41.33;16.45;99274.00;5107204;28;20071;-72
2021/07/17 08:53:27;;;;;;;5.38;4.93;;;;;;;39.21;19.45;99252.53;5105740;28;20039;-71
2021/07/17 08:55:54;;;;;;;7.00;4.50;;;;;;;38.36;19.87;99258.91;5105466;28;20076;-72
2021/07/17 08:58:19;;;;;;;6.65;5.50;;;;;;;38.55;19.89;99270.66;5087831;28;20527;-71
2021/07/17 09:00:45;;;;;;;5.78;5.30;;;;;;;39.90;18.54;99260.03;5104145;28;20107;-71
2021/07/17 09:03:14;;;;;;;8.40;5.50;;;;;;;40.39;18.30;99260.63;5070972;28;20039;-71
2021/07/17 09:05:43;;;;;;;5.40;4.90;;;;;;;40.48;18.08;99255.59;5069629;28;20058;-77
2021/07/17 09:08:10;;;;;;;5.20;4.78;;;;;;;39.44;18.32;99254.50;5072186;28;20043;-71
2021/07/17 09:10:44;;;;;;;7.68;4.70;;;;;;;39.67;18.57;99255.38;5072638;28;20040;-71
2021/07/17 09:13:11;;;;;;;11.50;4.88;;;;;;;39.20;18.70;99254.44;5089780;28;20082;-72
2021/07/17 09:15:39;;;;;;;8.02;4.93;;;;;;;38.65;20.20;99251.84;5108391;28;20500;-68
2021/07/17 09:18:06;;;;;;;7.80;4.93;;;;;;;38.60;20.37;99256.28;5109321;28;20527;-69
2021/07/17 09:20:33;;;;;;;8.68;5.15;;;;;;;38.26;20.40;99235.91;5040062;28;20050;-70
2021/07/17 09:23:09;;;;;;;6.65;5.78;;;;;;;37.93;21.19;99242.56;5110280;28;20370;-70
2021/07/17 09:25:41;;;;;;;7.15;5.43;;;;;;;37.65;21.47;99233.97;5074803;28;20504;-71
2021/07/17 09:28:21;;;;;;;16.52;5.95;;;;;;;37.37;22.51;99237.16;5089532;28;20035;-74
2021/07/17 09:30:52;;;;;;;8.35;6.00;;;;;;;36.47;22.40;99212.72;5075390;28;20039;-77
2021/07/17 09:33:17;;;;;;;5.55;5.05;;;;;;;36.30;22.47;99222.41;5074318;28;20059;-80
2021/07/17 09:35:47;;;;;;;8.65;6.18;;;;;;;36.08;23.55;99235.44;5108866;28;20039;-77
2021/07/17 09:38:13;;;;;;;10.13;5.53;;;;;;;35.43;24.44;99239.06;5109774;28;20047;-79
2021/07/17 09:41:19;;;;;;;7.13;6.38;;;;;;;35.61;25.28;99226.47;5109614;28;20090;-81
2021/07/17 09:43:45;;;;;;;8.90;6.40;;;;;;;35.92;25.08;99227.75;5074028;28;20051;-77
2021/07/17 09:46:26;;;;;;;10.63;6.72;;;;;;;35.85;25.16;99225.03;5057172;28;20088;-76
2021/07/17 09:48:56;;;;;;;7.57;6.78;;;;;;;35.64;25.97;99215.19;5073149;28;20043;-77
2021/07/17 09:51:28;;;;;;;7.55;6.82;;;;;;;35.73;25.52;99212.25;5091439;28;20050;-77
2021/07/17 09:54:01;;;;;;;13.32;7.45;;;;;;;35.50;26.22;99194.47;5073402;28;20154;-76
2021/07/17 09:56:30;;;;;;;7.38;6.65;;;;;;;35.58;25.52;99207.03;5108452;28;20126;-74
2021/07/17 09:58:58;;;;;;;14.65;7.07;;;;;;;34.96;26.37;99192.78;5091467;28;20048;-75
2021/07/17 10:01:31;;;;;;;13.70;7.13;;;;;;;35.06;26.28;99202.41;5089048;28;20039;-75
2021/07/17 10:04:11;;;;;;;7.25;6.65;;;;;;;34.72;25.88;99186.00;5092251;28;20442;-75
2021/07/17 10:06:38;;;;;;;11.77;7.63;;;;;;;34.06;27.42;99193.88;5075172;28;20100;-76
2021/07/17 10:09:14;;;;;;;10.35;7.72;;;;;;;33.91;27.58;99174.19;5041792;28;20044;-78
2021/07/17 10:11:46;;;;;;;7.63;6.88;;;;;;;34.29;27.67;99187.31;5071430;28;20054;-78
2021/07/17 10:14:19;;;;;;;10.60;8.18;;;;;;;34.64;28.53;99178.03;5070610;28;20044;-77
2021/07/17 10:16:48;;;;;;;16.20;8.18;;;;;;;34.87;27.85;99168.69;5088796;28;20040;-78
2021/07/17 10:19:19;;;;;;;10.38;7.80;;;;;;;34.91;27.76;99157.19;5071355;28;20039;-78
2021/07/17 10:21:46;;;;;;;12.75;8.48;;;;;;;35.13;26.84;99165.19;5088765;28;20131;-76
2021/07/17 10:24:13;;;;;;;9.55;8.13;;;;;;;35.07;27.27;99158.69;5090864;28;20452;-79
2021/07/17 10:26:39;;;;;;;9.05;8.02;;;;;;;34.92;27.84;99174.34;5072989;28;20048;-77
2021/07/17 10:29:06;;;;;;;8.90;8.00;;;;;;;34.78;28.03;99165.31;5056812;28;20047;-78
2021/07/17 10:31:33;;;;;;;11.55;8.05;;;;;;;34.65;28.56;99171.56;5090225;28;20052;-77
2021/07/17 10:33:59;;;;;;;11.23;8.60;;;;;;;34.68;28.18;99187.47;5088846;28;20082;-76
2021/07/17 10:36:25;;;;;;;9.82;7.85;;;;;;;34.67;27.56;99184.94;5088858;28;20505;-74
2021/07/17 10:38:56;;;;;;;8.50;7.70;;;;;;;34.66;26.83;99175.13;5086921;28;20150;-75
2021/07/17 10:41:24;;;;;;;12.60;7.38;;;;;;;34.59;26.40;99182.41;5087691;28;20043;-75
2021/07/17 10:43:52;;;;;;;7.72;6.93;;;;;;;34.22;26.00;99171.00;5068753;28;20047;-75
2021/07/17 10:46:30;;;;;;;10.95;7.35;;;;;;;34.45;26.40;99172.56;5085629;28;20548;-77
2021/07/17 10:48:57;;;;;;;9.90;7.03;;;;;;;34.56;25.93;99178.22;5086628;28;20470;-74
2021/07/17 10:51:23;;;;;;;13.25;7.53;;;;;;;34.66;26.66;99188.72;5068903;28;20044;-76
2021/07/17 10:53:50;;;;;;;8.63;7.68;;;;;;;34.73;27.29;99181.41;5090785;28;20039;-74
2021/07/17 10:56:28;;;;;;;14.55;7.88;;;;;;;34.74;26.60;99180.34;5090216;28;20044;-72
2021/07/17 10:58:55;;;;;;;12.00;8.00;;;;;;;34.57;27.73;99187.22;5092822;28;20404;-74
2021/07/17 11:01:21;;;;;;;13.13;7.75;;;;;;;34.53;28.21;99183.25;5091852;28;20039;-72
2021/07/17 11:03:48;;;;;;;11.48;7.45;;;;;;;34.66;28.12;99178.69;5091109;28;20048;-89
2021/07/17 11:06:31;;;;;;;12.25;8.10;;;;;;;34.46;27.98;99161.50;5056508;28;20043;-74
2021/07/17 11:08:58;;;;;;;13.57;8.13;;;;;;;34.61;27.95;99178.47;5056611;28;20566;-76
2021/07/17 11:11:27;;;;;;;8.60;7.70;;;;;;;34.79;28.19;99172.41;5091162;28;20094;-74
2021/07/17 11:13:53;;;;;;;11.93;8.68;;;;;;;34.80;28.00;99184.97;5074195;28;20087;-75
2021/07/17 11:16:47;;;;;;;14.00;8.48;;;;;;;34.86;27.63;99169.75;5074110;28;20050;-76
2021/07/17 11:19:23;;;;;;;15.90;8.20;;;;;;;34.72;28.49;99177.00;5074302;28;20039;-74
2021/07/17 11:21:49;;;;;;;14.02;9.32;;;;;;;34.44;29.28;99174.44;5073045;28;20058;-75
2021/07/17 11:24:15;;;;;;;10.40;9.40;;;;;;;34.47;28.98;99175.91;5073816;28;20052;-75